Time;durP1;ratioP1;P1;durP2;ratioP2;P2;SDS_P1;SDS_P2;PMS_P1;PMS_P2;Temp;Humidity;BMP_temperature;BMP_pressure;BME280_temperature;BME280_humidity;BME280_pressure;Samples;Min_cycle;Max_cycle;Signal;HPM_P1;HPM_P2
2023/08/31 00:00:25;;;;;;;10.50;7.50;;;;;;;21.37;56.39;99812.74;107482;1264;74594;-81
2023/08/31 00:02:53;;;;;;;11.30;7.80;;;;;;;21.34;56.29;99815.58;107408;1260;71693;-80
2023/08/31 00:05:20;;;;;;;11.80;7.90;;;;;;;21.29;56.43;99816.68;107420;1263;73071;-80
2023/08/31 00:07:48;;;;;;;12.00;7.40;;;;;;;21.26;56.47;99819.55;107411;1260;61819;-79
2023/08/31 00:10:17;;;;;;;11.70;7.50;;;;;;;21.22;56.44;99819.23;107402;1262;62278;-80
2023/08/31 00:12:44;;;;;;;8.90;7.50;;;;;;;21.20;56.38;99817.14;107581;1260;74057;-80
2023/08/31 00:15:13;;;;;;;12.40;7.70;;;;;;;21.17;56.46;99815.90;107566;1261;73153;-79
2023/08/31 00:17:40;;;;;;;12.30;7.20;;;;;;;21.14;56.12;99818.92;107526;1260;71494;-79
2023/08/31 00:20:11;;;;;;;12.40;7.30;;;;;;;21.11;56.12;99820.92;107449;1264;61118;-80
2023/08/31 00:22:39;;;;;;;11.00;7.30;;;;;;;21.08;56.11;99821.47;107471;1261;61227;-79
2023/08/31 00:25:08;;;;;;;10.00;6.90;;;;;;;21.04;55.82;99822.15;107380;1260;77197;-79
2023/08/31 00:27:40;;;;;;;11.20;6.90;;;;;;;21.00;55.97;99819.55;107523;1260;71091;-81
2023/08/31 00:30:11;;;;;;;11.40;7.20;;;;;;;20.96;55.91;99812.99;107301;1263;71642;-80
2023/08/31 00:32:39;;;;;;;9.30;7.10;;;;;;;20.95;56.08;99815.42;107686;1261;61242;-81
2023/08/31 00:35:08;;;;;;;10.40;7.60;;;;;;;20.93;55.79;99810.82;107395;1261;61244;-80
2023/08/31 00:37:36;;;;;;;12.80;7.70;;;;;;;20.91;55.64;99804.77;107481;1263;73468;-78
2023/08/31 00:40:04;;;;;;;9.60;7.20;;;;;;;20.85;55.94;99799.56;107394;1260;74219;-77
2023/08/31 00:42:32;;;;;;;8.40;6.80;;;;;;;20.76;55.98;99799.48;107516;1263;72811;-79
2023/08/31 00:44:59;;;;;;;11.30;7.10;;;;;;;20.66;56.18;99801.81;107659;1265;61090;-80
2023/08/31 00:47:28;;;;;;;9.70;7.10;;;;;;;20.57;56.24;99808.22;107387;1260;60400;-80
2023/08/31 00:49:56;;;;;;;11.90;7.00;;;;;;;20.51;56.26;99808.85;107657;1260;74742;-79
2023/08/31 00:52:24;;;;;;;10.90;6.90;;;;;;;20.45;56.47;99809.12;107418;1260;73424;-79
2023/08/31 00:54:52;;;;;;;10.50;7.00;;;;;;;20.39;56.29;99803.39;107712;1261;71493;-79
2023/08/31 00:57:19;;;;;;;10.60;6.90;;;;;;;20.33;56.44;99803.42;107377;1266;61097;-79
2023/08/31 00:59:47;;;;;;;10.70;6.90;;;;;;;20.30;56.33;99803.17;107295;1261;59862;-80
2023/08/31 01:02:35;;;;;;;10.50;7.30;;;;;;;20.26;56.33;99805.62;107523;1261;73862;-81
2023/08/31 01:05:44;;;;;;;12.10;7.30;;;;;;;20.26;56.16;99803.29;107347;1261;72907;-81
2023/08/31 01:08:33;;;;;;;10.00;6.30;;;;;;;20.29;56.15;99796.95;107507;1261;75116;-81
2023/08/31 01:11:12;;;;;;;9.80;6.50;;;;;;;20.31;55.78;99796.17;107583;1259;61954;-81
2023/08/31 01:13:41;;;;;;;12.50;6.90;;;;;;;20.33;56.09;99796.38;107496;1260;61252;-79
2023/08/31 01:16:09;;;;;;;10.20;6.80;;;;;;;20.32;55.92;99795.86;107509;1260;75792;-78
2023/08/31 01:18:37;;;;;;;11.40;6.50;;;;;;;20.32;55.80;99794.24;107573;1260;71636;-79
2023/08/31 01:21:24;;;;;;;9.50;6.40;;;;;;;20.31;55.73;99793.23;107378;1260;72843;-80
2023/08/31 01:23:53;;;;;;;8.30;6.40;;;;;;;20.31;55.47;99797.79;107447;1261;61207;-80
2023/08/31 01:26:21;;;;;;;10.90;6.70;;;;;;;20.30;55.62;99794.21;107512;1260;61149;-82
2023/08/31 01:28:51;;;;;;;9.60;6.50;;;;;;;20.30;55.19;99796.02;107435;1261;74752;-84
2023/08/31 01:31:18;;;;;;;10.20;6.30;;;;;;;20.29;55.16;99795.85;107342;1261;73171;-84
2023/08/31 01:33:47;;;;;;;10.30;6.10;;;;;;;20.27;54.80;99796.58;107545;1260;74935;-85
2023/08/31 01:36:29;;;;;;;11.80;6.60;;;;;;;20.26;54.62;99796.92;107312;1264;61686;-83
2023/08/31 01:39:28;;;;;;;10.70;6.50;;;;;;;20.26;54.33;99795.38;107366;1260;61119;-81
2023/08/31 01:41:57;;;;;;;10.30;6.20;;;;;;;20.25;54.37;99791.46;107275;1260;74838;-81
2023/08/31 01:44:25;;;;;;;8.90;6.10;;;;;;;20.23;54.30;99793.43;108692;1260;71471;-79
2023/08/31 01:46:55;;;;;;;12.00;6.10;;;;;;;20.19;54.42;99795.58;107575;1260;72800;-81
2023/08/31 01:49:24;;;;;;;10.20;6.60;;;;;;;20.11;54.56;99805.21;107434;1260;61268;-82
2023/08/31 01:51:52;;;;;;;13.20;6.50;;;;;;;20.07;54.43;99808.17;107430;1263;61173;-82
2023/08/31 01:54:20;;;;;;;10.60;6.20;;;;;;;20.06;54.55;99806.52;107374;1265;76995;-82
2023/08/31 01:56:48;;;;;;;12.40;6.70;;;;;;;20.07;54.45;99806.34;107412;1260;71802;-81
2023/08/31 01:59:16;;;;;;;12.60;5.90;;;;;;;20.10;54.37;99809.52;107318;1260;71562;-80
2023/08/31 02:01:43;;;;;;;9.20;5.90;;;;;;;20.14;54.18;99808.48;107431;1261;61239;-79
2023/08/31 02:04:11;;;;;;;11.50;6.30;;;;;;;20.19;54.23;99807.00;107394;1261;61112;-82
2023/08/31 02:06:42;;;;;;;11.30;6.50;;;;;;;20.20;53.89;99807.27;107399;1260;73863;-80
2023/08/31 02:09:10;;;;;;;10.90;6.40;;;;;;;20.21;54.04;99808.46;107489;1261;70657;-80
2023/08/31 02:11:38;;;;;;;8.30;6.50;;;;;;;20.20;53.79;99816.80;107381;1264;71384;-82
2023/08/31 02:14:05;;;;;;;8.90;5.90;;;;;;;20.17;53.79;99815.63;107377;1261;61703;-81
2023/08/31 02:16:34;;;;;;;9.60;6.20;;;;;;;20.12;53.69;99817.13;107486;1260;61112;-82
2023/08/31 02:19:01;;;;;;;9.70;5.90;;;;;;;20.09;53.42;99819.63;107516;1260;72798;-81
2023/08/31 02:21:29;;;;;;;10.30;6.50;;;;;;;20.05;53.30;99819.20;107295;1263;75081;-81
2023/08/31 02:23:56;;;;;;;9.40;6.30;;;;;;;20.02;53.51;99818.71;107404;1261;72487;-80
2023/08/31 02:26:24;;;;;;;10.10;6.50;;;;;;;20.00;53.46;99815.15;107529;1263;60047;-82
2023/08/31 02:28:52;;;;;;;10.50;6.00;;;;;;;19.97;53.54;99816.71;107475;1260;61226;-79
2023/08/31 02:31:19;;;;;;;9.70;6.10;;;;;;;19.93;53.48;99819.35;107409;1263;74651;-80
2023/08/31 02:33:47;;;;;;;9.60;6.30;;;;;;;19.89;53.69;99818.98;107501;1260;72915;-80
2023/08/31 02:36:15;;;;;;;8.00;5.70;;;;;;;19.86;53.66;99821.14;107592;1260;72509;-79
2023/08/31 02:38:43;;;;;;;10.90;6.20;;;;;;;19.86;53.75;99822.01;107378;1260;61247;-83
2023/08/31 02:41:13;;;;;;;9.60;5.80;;;;;;;19.85;53.73;99829.64;107484;1260;61132;-83
2023/08/31 02:43:40;;;;;;;9.60;5.80;;;;;;;19.85;53.78;99833.83;107288;1260;302005;-82
2023/08/31 02:46:10;;;;;;;10.20;6.00;;;;;;;19.86;53.85;99832.05;108162;1260;71382;-84
2023/08/31 02:48:38;;;;;;;11.00;6.30;;;;;;;19.85;54.11;99835.60;107393;1264;72453;-81
2023/08/31 02:51:08;;;;;;;9.70;5.80;;;;;;;19.86;54.06;99830.59;107456;1266;62276;-81
2023/08/31 02:53:35;;;;;;;8.20;5.80;;;;;;;19.87;54.22;99827.14;107324;1259;61150;-81
2023/08/31 02:56:03;;;;;;;11.00;5.80;;;;;;;19.86;54.36;99821.77;107311;1259;73403;-81
2023/08/31 02:58:32;;;;;;;9.10;5.90;;;;;;;19.87;54.35;99822.80;107478;1260;72885;-83
2023/08/31 03:01:11;;;;;;;12.30;6.10;;;;;;;19.88;54.54;99830.12;107379;1260;73451;-82
2023/08/31 03:03:42;;;;;;;8.40;6.10;;;;;;;19.91;54.59;99831.31;107357;1260;61102;-81
2023/08/31 03:06:10;;;;;;;10.00;6.60;;;;;;;19.95;54.51;99831.66;107873;1260;61151;-81
2023/08/31 03:08:38;;;;;;;10.40;5.70;;;;;;;19.98;54.20;99822.16;107314;1261;75168;-81
2023/08/31 03:11:05;;;;;;;9.40;6.40;;;;;;;20.01;54.22;99822.02;107364;1260;71630;-80
2023/08/31 03:13:33;;;;;;;10.00;6.50;;;;;;;20.02;54.16;99822.45;107618;1260;71531;-80
2023/08/31 03:16:02;;;;;;;11.80;6.60;;;;;;;20.04;54.51;99823.73;107455;1261;61346;-80
2023/08/31 03:18:30;;;;;;;13.20;6.30;;;;;;;20.07;54.38;99824.98;107409;1261;61067;-80
2023/08/31 03:20:57;;;;;;;8.70;5.60;;;;;;;20.10;54.03;99823.14;107246;1264;74625;-79
2023/08/31 03:23:26;;;;;;;10.10;5.80;;;;;;;20.12;53.83;99822.77;107396;1260;73220;-80
2023/08/31 03:25:54;;;;;;;9.10;6.10;;;;;;;20.18;53.99;99826.27;107432;1260;72758;-81
2023/08/31 03:28:21;;;;;;;9.30;5.60;;;;;;;20.25;53.80;99826.65;107315;1260;61007;-81
2023/08/31 03:30:56;;;;;;;8.10;5.40;;;;;;;20.32;53.59;99825.48;107466;1260;61158;-81
2023/08/31 03:33:24;;;;;;;11.30;5.50;;;;;;;20.39;53.31;99817.41;107516;1260;73497;-80
2023/08/31 03:35:51;;;;;;;8.10;5.20;;;;;;;20.45;52.64;99817.67;107428;1260;72005;-79
2023/08/31 03:38:19;;;;;;;7.80;5.20;;;;;;;20.51;52.64;99820.09;107415;1264;71598;-81
2023/08/31 03:40:57;;;;;;;10.00;5.50;;;;;;;20.56;52.17;99819.73;107525;1261;61235;-79
2023/08/31 03:43:25;;;;;;;9.90;5.30;;;;;;;20.63;51.81;99823.20;107425;1260;61081;-79
2023/08/31 03:45:56;;;;;;;9.20;5.20;;;;;;;20.71;51.55;99821.26;107462;1260;74639;-78
2023/08/31 03:48:24;;;;;;;9.10;5.10;;;;;;;20.76;51.12;99814.75;107501;1260;72728;-79
2023/08/31 03:50:52;;;;;;;8.20;5.30;;;;;;;20.82;50.98;99818.25;107976;1259;72829;-80
2023/08/31 03:53:22;;;;;;;7.50;4.80;;;;;;;20.88;50.86;99821.27;107484;1261;61452;-79
2023/08/31 03:55:51;;;;;;;10.30;4.70;;;;;;;20.94;50.62;99824.71;107489;1261;61340;-79
2023/08/31 03:58:19;;;;;;;10.80;4.60;;;;;;;21.00;50.54;99818.60;107490;1261;73446;-78
2023/08/31 04:00:50;;;;;;;7.90;4.90;;;;;;;21.06;50.47;99812.96;107355;1266;72933;-81
2023/08/31 04:03:18;;;;;;;10.40;4.80;;;;;;;21.10;50.33;99813.22;107466;1261;71397;-78
2023/08/31 04:05:47;;;;;;;8.70;4.80;;;;;;;21.14;50.43;99817.05;107308;1259;61253;-77
2023/08/31 04:08:15;;;;;;;8.60;4.80;;;;;;;21.16;50.21;99818.29;107555;1260;61372;-79
2023/08/31 04:10:42;;;;;;;9.30;4.90;;;;;;;21.19;50.01;99823.18;107503;1260;74688;-83
2023/08/31 04:13:10;;;;;;;9.60;4.80;;;;;;;21.21;49.78;99822.91;107358;1260;72897;-82
2023/08/31 04:15:38;;;;;;;8.20;4.30;;;;;;;21.23;49.81;99822.96;107385;1261;71625;-81
2023/08/31 04:18:06;;;;;;;8.80;4.40;;;;;;;21.26;49.81;99818.93;107522;1264;61253;-80
2023/08/31 04:20:36;;;;;;;8.50;4.60;;;;;;;21.29;49.84;99823.68;107447;1261;60034;-80
2023/08/31 04:23:04;;;;;;;7.10;4.40;;;;;;;21.32;49.58;99821.90;107494;1260;75109;-81
2023/08/31 04:25:31;;;;;;;8.00;4.50;;;;;;;21.36;49.50;99822.02;107571;1260;73866;-81
2023/08/31 04:27:59;;;;;;;10.20;4.50;;;;;;;21.38;49.52;99826.35;107444;1261;71478;-81
2023/08/31 04:30:26;;;;;;;8.20;4.20;;;;;;;21.41;49.56;99829.30;107514;1260;61239;-81
2023/08/31 04:32:54;;;;;;;8.60;4.50;;;;;;;21.44;49.73;99833.51;107440;1260;60013;-81
2023/08/31 04:35:22;;;;;;;8.50;4.20;;;;;;;21.49;49.62;99832.15;107382;1260;74719;-81
2023/08/31 04:37:50;;;;;;;7.40;3.90;;;;;;;21.52;49.71;99836.21;107230;1260;72876;-81
2023/08/31 04:40:17;;;;;;;8.60;4.40;;;;;;;21.55;49.56;99836.44;107380;1260;72889;-79
2023/08/31 04:42:45;;;;;;;7.00;4.40;;;;;;;21.58;49.57;99837.92;107581;1260;61231;-79
2023/08/31 04:45:12;;;;;;;6.10;4.10;;;;;;;21.61;49.53;99838.38;107887;1259;60265;-76
2023/08/31 04:47:40;;;;;;;8.80;4.20;;;;;;;21.64;49.55;99839.08;107483;1259;73901;-79
2023/08/31 04:50:08;;;;;;;9.80;4.70;;;;;;;21.68;49.76;99834.14;107509;1260;71643;-78
2023/08/31 04:52:36;;;;;;;9.00;5.10;;;;;;;21.72;49.64;99839.66;107813;1260;71201;-77
2023/08/31 04:55:09;;;;;;;8.60;4.70;;;;;;;21.75;49.76;99839.28;107586;1260;61189;-78
2023/08/31 04:57:36;;;;;;;9.80;4.30;;;;;;;21.79;49.94;99843.18;107794;1260;61126;-78
2023/08/31 05:00:05;;;;;;;7.50;4.30;;;;;;;21.84;49.80;99848.34;107643;1260;74807;-80
2023/08/31 05:02:32;;;;;;;10.00;4.30;;;;;;;21.90;50.04;99846.87;107663;1260;72801;-79
2023/08/31 05:05:00;;;;;;;6.50;4.30;;;;;;;21.98;50.23;99847.95;107366;1260;72458;-79
2023/08/31 05:07:27;;;;;;;8.80;4.60;;;;;;;22.10;50.39;99848.15;107558;1259;61355;-78
2023/08/31 05:09:55;;;;;;;7.00;4.10;;;;;;;22.22;50.21;99847.77;107316;1263;61083;-79
2023/08/31 05:12:23;;;;;;;12.30;4.70;;;;;;;22.33;50.17;99848.89;107590;1260;74618;-79
2023/08/31 05:14:50;;;;;;;8.20;4.40;;;;;;;22.44;49.73;99850.52;107374;1260;72058;-80
2023/08/31 05:17:18;;;;;;;8.10;4.20;;;;;;;22.56;49.55;99852.35;107413;1259;71426;-79
2023/08/31 05:19:47;;;;;;;7.10;3.80;;;;;;;22.69;49.66;99858.02;107518;1260;61344;-81
2023/08/31 05:22:14;;;;;;;9.30;4.30;;;;;;;22.84;49.28;99860.50;107350;1260;61106;-80
2023/08/31 05:24:42;;;;;;;6.80;4.00;;;;;;;22.98;48.81;99861.92;107454;1260;74642;-80
2023/08/31 05:27:09;;;;;;;11.30;4.30;;;;;;;23.13;48.44;99862.16;107452;1260;72852;-80
2023/08/31 05:29:37;;;;;;;8.80;4.30;;;;;;;23.29;48.06;99861.52;107510;1263;71211;-81
2023/08/31 05:32:06;;;;;;;8.00;3.90;;;;;;;23.44;47.81;99861.91;107381;1260;61005;-78
2023/08/31 05:34:37;;;;;;;7.40;3.70;;;;;;;23.60;47.06;99863.75;107561;1260;61084;-79
2023/08/31 05:37:05;;;;;;;;;;;;;;;23.75;46.51;99860.86;107398;1260;73694;-77
2023/08/31 05:39:32;;;;;;;6.40;3.40;;;;;;;23.88;46.09;99866.69;107340;1259;72130;-80
2023/08/31 05:42:00;;;;;;;6.90;3.70;;;;;;;24.00;45.73;99870.17;107108;1264;71444;-81
2023/08/31 05:44:30;;;;;;;8.30;3.70;;;;;;;24.12;45.11;99876.21;107372;1260;61205;-81
2023/08/31 05:46:57;;;;;;;8.60;3.80;;;;;;;24.23;44.97;99882.48;107511;1260;60219;-80
2023/08/31 05:49:25;;;;;;;8.70;4.00;;;;;;;24.33;44.91;99886.30;107335;1260;73832;-82
2023/08/31 05:51:53;;;;;;;7.30;3.80;;;;;;;24.41;44.10;99888.63;107320;1260;72722;-81
2023/08/31 05:54:20;;;;;;;7.70;3.40;;;;;;;24.49;44.05;99894.14;107344;1259;72698;-82
2023/08/31 05:56:48;;;;;;;6.80;3.60;;;;;;;24.55;44.13;99900.79;107299;1264;61029;-82
2023/08/31 05:59:15;;;;;;;10.80;3.90;;;;;;;24.61;44.07;99894.00;107322;1260;61134;-81
2023/08/31 06:01:43;;;;;;;9.60;3.50;;;;;;;24.65;43.94;99890.09;107364;1260;74586;-78
2023/08/31 06:04:11;;;;;;;9.00;3.90;;;;;;;24.71;43.88;99886.66;107587;1260;73003;-83
2023/08/31 06:06:38;;;;;;;7.30;3.50;;;;;;;24.79;43.87;99890.77;107410;1260;72763;-82
2023/08/31 06:09:07;;;;;;;8.60;4.00;;;;;;;24.87;43.75;99890.80;107425;1260;59300;-80
2023/08/31 06:11:35;;;;;;;9.00;3.20;;;;;;;24.90;43.73;99894.19;107477;1261;61050;-80
2023/08/31 06:14:03;;;;;;;6.80;3.40;;;;;;;24.96;43.55;99895.98;107315;1260;75375;-81
2023/08/31 06:16:31;;;;;;;9.40;3.50;;;;;;;25.05;43.07;99895.33;107366;1260;71997;-80
2023/08/31 06:18:58;;;;;;;9.40;3.90;;;;;;;25.18;43.07;99894.72;107576;1259;72744;-79
2023/08/31 06:21:26;;;;;;;11.30;4.00;;;;;;;25.32;42.70;99894.05;107389;1260;61361;-81
2023/08/31 06:23:54;;;;;;;8.90;4.10;;;;;;;25.48;42.31;99892.12;107523;1261;60991;-81
2023/08/31 06:26:21;;;;;;;8.30;3.90;;;;;;;25.65;41.99;99892.45;107704;1260;75204;-83
2023/08/31 06:28:50;;;;;;;6.50;3.40;;;;;;;25.83;41.09;99890.71;107370;1260;72889;-82
2023/08/31 06:31:19;;;;;;;9.20;3.80;;;;;;;26.00;40.62;99888.05;107364;1260;71479;-80
2023/08/31 06:33:46;;;;;;;8.00;3.40;;;;;;;26.14;40.58;99890.59;107349;1261;60375;-79
2023/08/31 06:36:14;;;;;;;9.50;3.60;;;;;;;26.24;40.27;99888.64;107487;1260;61140;-79
2023/08/31 06:38:42;;;;;;;9.50;3.70;;;;;;;26.32;40.10;99890.34;107425;1260;74680;-82
2023/08/31 06:41:09;;;;;;;7.90;3.30;;;;;;;26.37;39.93;99894.06;107485;1260;71658;-82
2023/08/31 06:43:37;;;;;;;7.60;3.40;;;;;;;26.43;39.68;99897.71;107472;1259;73037;-80
2023/08/31 06:46:05;;;;;;;6.60;3.40;;;;;;;26.49;39.43;99900.98;107306;1260;61789;-80
2023/08/31 06:48:51;;;;;;;7.60;3.70;;;;;;;26.56;39.65;99896.48;107498;1260;60253;-81
2023/08/31 06:51:18;;;;;;;7.50;3.70;;;;;;;26.62;39.79;99900.13;107479;1263;73987;-80
2023/08/31 06:53:48;;;;;;;9.90;3.70;;;;;;;26.71;39.44;99902.85;107450;1259;76229;-80
2023/08/31 06:56:16;;;;;;;7.80;4.00;;;;;;;26.79;39.14;99904.07;107423;1260;72809;-79
2023/08/31 06:58:44;;;;;;;8.50;3.70;;;;;;;26.90;39.27;99902.80;107377;1260;61158;-80
2023/08/31 07:01:13;;;;;;;8.60;4.00;;;;;;;27.03;39.14;99904.83;107289;1261;62209;-80
2023/08/31 07:03:40;;;;;;;8.60;3.90;;;;;;;27.16;39.20;99907.02;107499;1260;73419;-82
2023/08/31 07:06:08;;;;;;;7.40;3.40;;;;;;;27.30;38.67;99908.65;107495;1260;73242;-83
2023/08/31 07:08:37;;;;;;;7.30;3.40;;;;;;;27.36;37.71;99910.39;107383;1261;71456;-81
2023/08/31 07:11:04;;;;;;;7.80;3.40;;;;;;;27.40;38.15;99907.66;107298;1260;61259;-76
2023/08/31 07:13:32;;;;;;;7.70;3.90;;;;;;;27.44;37.51;99914.02;107367;1260;61069;-83
2023/08/31 07:16:00;;;;;;;7.10;3.20;;;;;;;27.46;37.48;99914.75;107343;1260;73889;-82
2023/08/31 07:18:27;;;;;;;6.30;4.00;;;;;;;27.47;37.18;99915.69;107365;1260;71622;-81
2023/08/31 07:20:55;;;;;;;8.10;3.70;;;;;;;27.48;37.18;99917.58;107510;1259;72487;-82
2023/08/31 07:23:23;;;;;;;7.10;3.60;;;;;;;27.51;37.65;99922.44;107230;1260;60158;-81
2023/08/31 07:25:50;;;;;;;6.90;3.30;;;;;;;27.54;37.57;99924.31;107281;1261;61063;-80
2023/08/31 07:28:18;;;;;;;8.70;3.60;;;;;;;27.58;37.54;99924.65;107294;1260;76903;-81
2023/08/31 07:30:46;;;;;;;6.80;3.20;;;;;;;27.62;37.16;99921.84;107276;1260;72779;-80
2023/08/31 07:33:13;;;;;;;9.00;3.60;;;;;;;27.66;36.91;99923.18;107287;1264;72928;-79
2023/08/31 07:35:58;;;;;;;7.20;3.50;;;;;;;27.69;36.94;99918.88;107687;1260;61387;-80
2023/08/31 07:38:27;;;;;;;11.90;3.60;;;;;;;27.74;36.87;99924.22;107628;1260;62878;-84
2023/08/31 07:40:55;;;;;;;7.60;3.20;;;;;;;27.79;36.79;99919.23;107433;1260;66142;-81
2023/08/31 07:43:23;;;;;;;7.20;3.60;;;;;;;27.84;36.31;99915.73;107291;1260;73030;-82
2023/08/31 07:45:52;;;;;;;6.30;3.40;;;;;;;27.88;36.28;99917.45;107368;1260;72866;-84
2023/08/31 07:48:19;;;;;;;8.30;3.30;;;;;;;27.92;36.78;99918.16;107372;1260;61421;-81
2023/08/31 07:50:48;;;;;;;7.20;3.50;;;;;;;27.97;36.49;99917.39;107354;1260;61219;-82
2023/08/31 07:53:19;;;;;;;9.80;3.30;;;;;;;28.02;36.88;99916.23;107226;1260;76558;-84
2023/08/31 07:55:52;;;;;;;5.20;3.00;;;;;;;28.09;36.90;99914.48;107395;1260;62609;-81
2023/08/31 07:58:20;;;;;;;7.30;3.10;;;;;;;28.16;36.80;99915.52;107396;1260;64381;-82
2023/08/31 08:00:48;;;;;;;11.60;3.50;;;;;;;28.24;36.55;99916.46;107460;1261;61083;-81
2023/08/31 08:03:16;;;;;;;8.40;3.20;;;;;;;28.32;36.97;99917.25;107831;1260;59859;-81
2023/08/31 08:05:44;;;;;;;8.20;3.40;;;;;;;28.42;36.88;99913.27;107558;1260;73441;-79
2023/08/31 08:08:12;;;;;;;9.10;3.60;;;;;;;28.51;36.73;99914.98;107267;1263;75141;-82
2023/08/31 08:10:40;;;;;;;5.70;3.10;;;;;;;28.58;36.57;99911.05;107280;1260;64938;-80
2023/08/31 08:13:07;;;;;;;8.50;3.30;;;;;;;28.64;36.62;99909.40;107323;1260;61205;-80
2023/08/31 08:15:35;;;;;;;8.80;3.40;;;;;;;28.74;36.74;99908.90;107254;1260;61214;-82
2023/08/31 08:18:03;;;;;;;11.70;3.60;;;;;;;28.81;36.35;99907.79;107309;1263;64757;-79
2023/08/31 08:20:31;;;;;;;7.10;3.60;;;;;;;28.86;36.14;99903.92;107231;1260;65851;-83
2023/08/31 08:22:59;;;;;;;6.90;2.90;;;;;;;28.91;36.27;99901.40;107163;1260;71866;-82
2023/08/31 08:25:27;;;;;;;11.20;3.30;;;;;;;28.97;36.00;99903.19;107193;1261;61242;-82
2023/08/31 08:27:54;;;;;;;5.60;2.90;;;;;;;28.99;35.13;99903.02;107335;1263;61094;-82
2023/08/31 08:30:22;;;;;;;6.50;2.90;;;;;;;28.94;35.34;99903.04;107315;1260;76879;-83
2023/08/31 08:32:49;;;;;;;8.50;3.40;;;;;;;28.96;35.49;99903.81;107347;1260;62997;-80
2023/08/31 08:35:17;;;;;;;5.70;3.20;;;;;;;29.01;35.09;99901.46;107539;1260;63951;-81
2023/08/31 08:37:46;;;;;;;8.40;3.10;;;;;;;29.09;35.09;99902.23;107259;1260;61309;-82
2023/08/31 08:40:14;;;;;;;6.30;3.00;;;;;;;29.18;35.30;99903.30;107274;1260;61091;-79
2023/08/31 08:42:43;;;;;;;7.20;3.30;;;;;;;29.33;35.43;99901.82;107328;1260;65805;-81
2023/08/31 08:45:17;;;;;;;6.00;3.20;;;;;;;29.42;35.48;99903.33;107481;1260;63998;-81
2023/08/31 08:47:45;;;;;;;6.60;3.10;;;;;;;29.49;35.65;99897.88;107323;1260;63822;-80
2023/08/31 08:50:13;;;;;;;9.00;3.20;;;;;;;29.59;35.76;99895.40;107394;1260;59805;-81
2023/08/31 08:52:41;;;;;;;5.80;3.20;;;;;;;29.72;35.30;99895.25;107247;1264;60081;-80
2023/08/31 08:55:09;;;;;;;5.80;2.90;;;;;;;29.85;34.72;99891.00;107286;1260;68142;-80
2023/08/31 08:57:38;;;;;;;7.00;3.10;;;;;;;29.96;34.54;99889.81;107315;1260;63841;-79
2023/08/31 09:00:08;;;;;;;6.30;3.30;;;;;;;30.01;34.28;99889.23;107649;1260;62604;-80
2023/08/31 09:02:35;;;;;;;6.90;2.90;;;;;;;30.04;35.01;99890.55;107029;1260;61281;-80
2023/08/31 09:05:03;;;;;;;8.60;3.20;;;;;;;30.10;34.86;99891.99;107121;1259;61402;-82
2023/08/31 09:07:38;;;;;;;8.10;3.40;;;;;;;30.19;34.38;99893.50;107309;1260;65027;-83
2023/08/31 09:10:06;;;;;;;9.20;3.20;;;;;;;30.30;34.46;99892.39;107356;1260;65131;-83
2023/08/31 09:12:39;;;;;;;6.40;3.10;;;;;;;30.44;34.43;99894.47;107850;1259;74873;-82
2023/08/31 09:15:07;;;;;;;8.40;3.80;;;;;;;30.53;34.06;99891.48;107314;1261;63202;-82
2023/08/31 09:17:44;;;;;;;10.50;3.80;;;;;;;30.64;34.55;99892.94;107291;1261;61088;-80
2023/08/31 09:20:12;;;;;;;6.80;3.10;;;;;;;30.72;34.73;99895.77;107277;1261;64476;-79
2023/08/31 09:22:44;;;;;;;9.20;3.40;;;;;;;30.75;34.12;99893.37;107321;1261;62662;-81
2023/08/31 09:25:12;;;;;;;6.80;3.00;;;;;;;30.74;33.77;99894.56;107138;1261;62756;-80
2023/08/31 09:27:40;;;;;;;8.70;3.00;;;;;;;30.76;34.14;99891.89;107390;1261;61362;-79
2023/08/31 09:30:08;;;;;;;6.00;3.10;;;;;;;30.81;34.17;99894.05;106962;1261;61340;-78
2023/08/31 09:32:36;;;;;;;6.80;3.30;;;;;;;30.88;34.19;99889.09;107211;1263;64545;-80
2023/08/31 09:35:04;;;;;;;10.60;3.20;;;;;;;30.94;34.20;99886.98;107096;1267;63161;-79
2023/08/31 09:37:43;;;;;;;9.10;3.50;;;;;;;31.01;33.46;99890.04;107208;1261;63872;-85
2023/08/31 09:40:14;;;;;;;7.60;3.10;;;;;;;31.05;33.24;99892.11;107092;1261;61112;-79
2023/08/31 09:42:41;;;;;;;8.00;3.10;;;;;;;31.11;33.22;99892.04;107224;1262;61259;-84
2023/08/31 09:45:09;;;;;;;10.80;3.30;;;;;;;31.19;32.93;99892.56;107205;1261;64822;-80
2023/08/31 09:47:41;;;;;;;5.70;2.80;;;;;;;31.25;32.69;99892.10;107193;1261;63714;-80
2023/08/31 09:50:09;;;;;;;5.80;2.90;;;;;;;31.28;32.76;99892.30;106986;1261;62570;-77
2023/08/31 09:52:37;;;;;;;10.20;2.90;;;;;;;31.27;33.23;99888.83;107127;1262;61161;-79
2023/08/31 09:55:05;;;;;;;8.40;3.10;;;;;;;31.38;33.45;99890.15;107144;1261;61127;-78
2023/08/31 09:57:34;;;;;;;8.40;3.20;;;;;;;31.54;33.09;99888.27;106975;1261;76907;-78
2023/08/31 10:00:15;;;;;;;6.90;3.00;;;;;;;31.70;33.17;99891.50;107227;1261;64004;-78
2023/08/31 10:02:43;;;;;;;7.60;3.00;;;;;;;31.81;33.05;99891.73;107217;1261;63826;-77
2023/08/31 10:05:11;;;;;;;5.60;3.20;;;;;;;31.90;32.89;99893.27;106964;1262;61360;-77
2023/08/31 10:07:42;;;;;;;8.30;2.90;;;;;;;31.95;32.76;99893.52;107295;1261;61327;-79
2023/08/31 10:10:22;;;;;;;6.60;3.20;;;;;;;32.01;31.95;99895.23;107526;1261;64634;-77
2023/08/31 10:12:52;;;;;;;7.60;2.90;;;;;;;32.10;31.44;99898.40;107154;1261;65971;-79
2023/08/31 10:15:20;;;;;;;6.60;3.10;;;;;;;32.21;31.12;99897.83;107123;1261;62602;-80
2023/08/31 10:17:48;;;;;;;10.90;3.20;;;;;;;32.29;30.42;99896.90;107755;1261;61145;-81
2023/08/31 10:20:16;;;;;;;6.70;3.10;;;;;;;32.36;30.42;99897.88;107102;1263;61093;-78
2023/08/31 10:22:44;;;;;;;7.50;3.50;;;;;;;32.42;30.31;99899.37;108390;1261;65875;-79
2023/08/31 10:25:12;;;;;;;8.10;3.40;;;;;;;32.48;30.43;99896.99;108491;1261;62707;-82
2023/08/31 10:27:42;;;;;;;6.80;3.00;;;;;;;32.57;30.18;99896.67;108532;1264;63802;-81
2023/08/31 10:30:26;;;;;;;8.60;3.20;;;;;;;32.68;30.42;99897.27;106991;1261;60534;-80
2023/08/31 10:33:08;;;;;;;5.70;3.20;;;;;;;32.75;29.65;99895.54;107175;1261;61657;-79
2023/08/31 10:35:49;;;;;;;6.60;2.80;;;;;;;32.73;29.38;99894.86;107174;1260;64606;-81
2023/08/31 10:38:25;;;;;;;10.00;3.80;;;;;;;32.66;28.98;99892.64;107329;1261;62608;-79
2023/08/31 10:41:08;;;;;;;8.80;3.30;;;;;;;32.57;29.38;99894.94;107034;1260;62564;-83
2023/08/31 10:43:57;;;;;;;6.60;3.10;;;;;;;32.50;29.32;99893.33;107139;1261;61287;-77
2023/08/31 10:46:42;;;;;;;6.60;3.00;;;;;;;32.42;29.32;99890.83;107132;1261;60891;-78
2023/08/31 10:49:19;;;;;;;7.00;3.00;;;;;;;32.37;29.17;99892.09;107478;1261;64746;-80
2023/08/31 10:51:55;;;;;;;7.80;3.00;;;;;;;32.35;29.56;99893.24;107163;1261;64361;-78
2023/08/31 10:54:24;;;;;;;7.20;3.20;;;;;;;32.35;29.81;99891.04;107319;1261;62507;-78
2023/08/31 10:57:05;;;;;;;6.70;3.40;;;;;;;32.34;30.12;99889.86;107102;1260;61294;-77
2023/08/31 10:59:42;;;;;;;5.30;2.90;;;;;;;32.26;30.14;99891.04;106948;1261;61087;-80
2023/08/31 11:02:11;;;;;;;9.80;3.40;;;;;;;32.18;29.76;99891.87;107191;1261;74834;-79
2023/08/31 11:04:54;;;;;;;9.30;3.40;;;;;;;32.16;29.84;99887.33;107357;1261;64569;-79
2023/08/31 11:07:29;;;;;;;10.80;3.60;;;;;;;32.14;29.48;99890.42;107190;1261;63792;-76
2023/08/31 11:10:12;;;;;;;8.00;3.00;;;;;;;32.16;29.59;99887.95;107681;1264;61274;-76
2023/08/31 11:12:54;;;;;;;10.60;3.40;;;;;;;32.19;29.86;99882.63;107059;1261;61208;-76
2023/08/31 11:18:40;;;;;;;6.20;2.90;;;;;;;32.18;29.32;99879.87;108272;1260;62332;-77
2023/08/31 11:21:24;;;;;;;6.40;3.00;;;;;;;32.18;29.60;99877.89;108530;1260;63808;-80
2023/08/31 11:23:57;;;;;;;7.70;3.20;;;;;;;32.15;29.34;99876.20;107606;1260;61241;-79
2023/08/31 11:26:32;;;;;;;6.00;2.70;;;;;;;32.15;29.40;99874.80;107687;1259;61099;-78
2023/08/31 11:32:17;;;;;;;6.10;2.90;;;;;;;32.18;29.59;99874.50;106890;1260;62724;-77
2023/08/31 11:34:44;;;;;;;6.80;2.90;;;;;;;32.19;28.93;99876.39;107431;1260;65548;-77
2023/08/31 11:37:15;;;;;;;8.30;3.20;;;;;;;32.21;29.00;99873.98;108052;1260;61087;-77
2023/08/31 11:39:49;;;;;;;8.00;3.00;;;;;;;32.22;29.52;99877.52;107965;1260;59244;-75
2023/08/31 11:42:18;;;;;;;5.30;3.00;;;;;;;32.25;29.63;99878.89;107111;1262;67617;-76